Huvudsida
METAR-TAF:

METAR-TAF

Flygplatser :

Jazīreh-ye Lāvān, Iran

latitud: 26-48-37N, longitud: 53-21-22E, höjd: 23 m

Aktuellt väderrapport

Denna rapport gjordes för 47 minuter sedan, klockan 03:00 UTC
Vind 14 kt från ost/nordost
Temperatur 24°C
Fuktighet 74%
Tryck 1011 hPa
Sikt: 4000 m
Få moln på en höjd av 2000 ft
Spridda moln på en höjd av 2500 ft, Cumulonimbus.
Mulet på en höjd av 9000 ft
åska, regn

METAR: OIBV 200300Z 06014KT 4000 TSRA FEW020 SCT025CB OVC090 24/19 Q1011

Tid: 07:17 (03:47 UTC)


TAF: saknas

Aktuella väderrapporter och prognoser från 4000 flygplatser (METAR- och TAF-rapporter).

De tillgängliga stationerna syns som gula och röda prickar på kartan.

För musen över prickarna för att se namnen på stationerna.

Klicka sedan för att få väderrapporter och prognoser.

För att ändra kartan: Klicka på de gröna knapparna med ett svart kors på för att zooma in; den gröna knappen med ett streck på för att zooma ut; eller på de gröna pilarna för angränsande kartor.


METAR-TAF: